createdAt,value
2018-06-18T00:02:16.197Z,4.20
2018-06-18T00:04:44.205Z,3.50
2018-06-18T00:07:12.212Z,3.40
2018-06-18T00:09:40.238Z,3.77
2018-06-18T00:12:08.235Z,3.50
2018-06-18T00:14:36.238Z,4.00
2018-06-18T00:17:04.232Z,3.63
2018-06-18T00:19:32.224Z,4.03
2018-06-18T00:22:00.279Z,3.93
2018-06-18T00:24:28.299Z,3.73
2018-06-18T00:26:56.291Z,3.90
2018-06-18T00:29:24.720Z,3.60
2018-06-18T00:31:52.696Z,3.63
2018-06-18T00:34:20.707Z,3.90
2018-06-18T00:36:48.735Z,4.00
2018-06-18T00:39:16.757Z,4.10
2018-06-18T00:41:44.762Z,3.73
2018-06-18T00:44:12.752Z,3.70
2018-06-18T00:46:40.731Z,3.50
2018-06-18T00:49:08.716Z,4.60
2018-06-18T00:51:36.720Z,4.60
2018-06-18T00:54:04.832Z,4.10
2018-06-18T00:56:32.844Z,4.50
2018-06-18T00:59:00.860Z,4.27
2018-06-18T01:01:28.873Z,4.20
2018-06-18T01:03:56.897Z,4.93
2018-06-18T01:06:24.943Z,4.70
2018-06-18T01:08:52.969Z,5.00
2018-06-18T01:11:21.027Z,5.00
2018-06-18T01:13:48.996Z,5.83
2018-06-18T01:16:16.993Z,4.53
2018-06-18T01:18:44.985Z,5.50
2018-06-18T01:21:12.965Z,6.63
2018-06-18T01:23:50.652Z,5.67
2018-06-18T01:26:18.656Z,5.83
2018-06-18T01:28:46.685Z,5.50
2018-06-18T01:31:14.723Z,5.83
2018-06-18T01:33:42.729Z,6.20
2018-06-18T01:36:10.752Z,5.50
2018-06-18T01:38:38.784Z,5.93
2018-06-18T01:41:07.594Z,6.17
2018-06-18T01:43:35.580Z,5.47
2018-06-18T01:46:03.613Z,6.07
2018-06-18T01:48:31.632Z,6.30
2018-06-18T01:50:59.699Z,6.30
2018-06-18T01:53:27.701Z,6.47
2018-06-18T01:55:55.689Z,6.53
2018-06-18T01:58:23.792Z,6.80
2018-06-18T02:00:51.789Z,6.77
2018-06-18T02:03:19.793Z,6.50
2018-06-18T02:05:47.780Z,7.67
2018-06-18T02:08:15.834Z,6.90
2018-06-18T02:10:43.839Z,7.00
2018-06-18T02:13:11.876Z,6.53
2018-06-18T02:15:39.882Z,7.63
2018-06-18T02:18:07.905Z,8.07
2018-06-18T02:20:35.948Z,7.70
2018-06-18T02:23:03.936Z,8.63
2018-06-18T02:25:31.945Z,8.00
2018-06-18T02:28:05.449Z,9.30
2018-06-18T02:30:38.825Z,7.60
2018-06-18T02:33:12.217Z,7.67
2018-06-18T02:35:45.632Z,8.87
2018-06-18T02:38:19.530Z,7.40
2018-06-18T02:40:48.143Z,8.00
2018-06-18T02:43:17.545Z,8.40
2018-06-18T02:45:45.870Z,8.20
2018-06-18T02:48:14.006Z,8.07
2018-06-18T02:50:42.560Z,9.97
2018-06-18T02:53:10.567Z,7.83
2018-06-18T02:55:40.160Z,8.10
2018-06-18T02:58:08.167Z,7.30
2018-06-18T03:00:36.177Z,8.97
2018-06-18T03:03:04.205Z,9.07
2018-06-18T03:05:32.229Z,7.97
2018-06-18T03:08:00.225Z,8.50
2018-06-18T03:10:28.249Z,8.13
2018-06-18T03:12:56.254Z,7.57
2018-06-18T03:15:24.265Z,8.37
2018-06-18T03:17:52.256Z,8.17
2018-06-18T03:20:25.652Z,8.83
2018-06-18T03:22:58.954Z,9.07
2018-06-18T03:25:32.453Z,8.47
2018-06-18T03:28:05.940Z,7.50
2018-06-18T03:30:33.972Z,8.60
2018-06-18T03:33:01.969Z,8.07
2018-06-18T03:35:29.988Z,9.00
2018-06-18T03:37:58.989Z,8.80
2018-06-18T03:40:27.000Z,8.37
2018-06-18T03:42:55.009Z,8.30
2018-06-18T03:45:25.111Z,7.60
2018-06-18T03:47:54.216Z,8.20
2018-06-18T03:50:22.224Z,7.30
2018-06-18T03:52:50.749Z,7.80
2018-06-18T03:55:25.777Z,8.17
2018-06-18T03:57:53.911Z,7.50
2018-06-18T04:00:22.241Z,8.20
2018-06-18T04:02:58.021Z,7.90
2018-06-18T04:05:31.508Z,7.70
2018-06-18T04:08:01.931Z,8.13
2018-06-18T04:10:37.089Z,7.57
2018-06-18T04:13:05.527Z,7.90
2018-06-18T04:15:33.536Z,7.40
2018-06-18T04:18:01.621Z,8.17
2018-06-18T04:20:35.071Z,7.90
2018-06-18T04:23:03.112Z,8.07
2018-06-18T04:25:31.109Z,8.20
2018-06-18T04:27:59.106Z,7.83
2018-06-18T04:30:27.139Z,7.97
2018-06-18T04:32:55.141Z,8.00
2018-06-18T04:35:23.176Z,7.73
2018-06-18T04:37:51.314Z,8.97
2018-06-18T04:40:19.320Z,7.73
2018-06-18T04:42:52.696Z,8.57
2018-06-18T04:45:26.241Z,7.83
2018-06-18T04:47:59.613Z,7.00
2018-06-18T04:50:32.954Z,8.13
2018-06-18T04:53:00.967Z,7.70
2018-06-18T04:55:28.945Z,8.80
2018-06-18T04:57:57.012Z,7.30
2018-06-18T05:00:36.576Z,8.00
2018-06-18T05:03:04.594Z,7.57
2018-06-18T05:05:32.593Z,7.50
2018-06-18T05:08:16.348Z,7.70
2018-06-18T05:10:44.367Z,7.50
2018-06-18T05:13:12.385Z,7.93
2018-06-18T05:15:41.199Z,7.60
2018-06-18T05:18:09.218Z,7.53
2018-06-18T05:20:37.308Z,8.07
2018-06-18T05:23:09.501Z,8.87
2018-06-18T05:25:37.514Z,8.10
2018-06-18T05:28:05.790Z,8.10
2018-06-18T05:30:33.767Z,7.40
2018-06-18T05:33:01.756Z,7.20
2018-06-18T05:35:29.953Z,7.60
2018-06-18T05:38:02.578Z,7.07
2018-06-18T05:40:30.585Z,7.60
2018-06-18T05:42:58.620Z,7.47
2018-06-18T05:45:26.601Z,7.40
2018-06-18T05:47:54.759Z,7.33
2018-06-18T05:50:22.990Z,7.47
2018-06-18T05:52:51.149Z,7.47
2018-06-18T05:55:19.162Z,6.60
2018-06-18T05:57:47.189Z,6.80
2018-06-18T06:00:15.913Z,6.60
2018-06-18T06:02:43.976Z,6.80
2018-06-18T06:05:11.985Z,6.30
2018-06-18T06:07:39.987Z,6.37
2018-06-18T06:10:08.054Z,6.10
2018-06-18T06:12:36.245Z,6.13
2018-06-18T06:15:04.245Z,6.70
2018-06-18T06:17:32.277Z,5.90
2018-06-18T06:20:00.308Z,6.47
2018-06-18T06:22:28.373Z,6.40
2018-06-18T06:24:56.358Z,6.00
2018-06-18T06:27:24.500Z,6.00
2018-06-18T06:29:52.537Z,5.87
2018-06-18T06:32:20.536Z,5.97
2018-06-18T06:34:54.045Z,6.27
2018-06-18T06:37:22.200Z,6.47
2018-06-18T06:39:50.253Z,6.87
2018-06-18T06:42:18.906Z,6.13
2018-06-18T06:44:47.102Z,5.57
2018-06-18T06:47:15.204Z,4.80
2018-06-18T06:49:43.393Z,5.10
2018-06-18T06:52:11.423Z,4.80
2018-06-18T06:54:39.428Z,5.17
2018-06-18T06:57:08.237Z,5.27
2018-06-18T06:59:36.314Z,5.87
2018-06-18T07:02:05.345Z,5.23
2018-06-18T07:04:33.453Z,6.10
2018-06-18T07:07:01.468Z,6.70
2018-06-18T07:09:29.496Z,6.23
2018-06-18T07:11:57.589Z,6.27
2018-06-18T07:14:25.644Z,6.83
2018-06-18T07:19:33.036Z,6.10
2018-06-18T07:22:01.112Z,6.40
2018-06-18T07:24:29.457Z,6.13
2018-06-18T07:26:57.496Z,6.03
2018-06-18T07:29:25.858Z,6.07
2018-06-18T07:31:53.948Z,6.10
2018-06-18T07:34:22.028Z,5.67
2018-06-18T07:36:50.036Z,4.90
2018-06-18T07:39:18.180Z,5.37
2018-06-18T07:41:46.163Z,5.50
2018-06-18T07:44:14.210Z,4.93
2018-06-18T07:46:42.284Z,5.30
2018-06-18T07:49:10.357Z,5.13
2018-06-18T07:51:38.428Z,5.77
2018-06-18T07:54:06.417Z,4.90
2018-06-18T07:56:34.516Z,5.30
2018-06-18T07:59:02.676Z,4.90
2018-06-18T08:01:30.713Z,4.77
2018-06-18T08:03:58.701Z,4.77
2018-06-18T08:06:26.687Z,4.90
2018-06-18T08:08:54.729Z,4.83
2018-06-18T08:11:22.752Z,5.27
2018-06-18T08:13:50.753Z,4.50
2018-06-18T08:16:18.765Z,5.00
2018-06-18T08:18:46.790Z,5.57
2018-06-18T08:21:14.788Z,5.13
2018-06-18T08:23:42.866Z,6.07
2018-06-18T08:26:10.820Z,6.00
2018-06-18T08:28:38.837Z,5.60
2018-06-18T08:31:06.872Z,5.67
2018-06-18T08:33:34.914Z,4.07
2018-06-18T08:36:02.928Z,5.50
2018-06-18T08:38:30.920Z,5.07
2018-06-18T08:40:58.905Z,4.90
2018-06-18T08:43:26.964Z,4.53
2018-06-18T08:45:55.018Z,3.87
2018-06-18T08:48:28.581Z,4.30
2018-06-18T08:52:00.903Z,4.00
2018-06-18T08:54:34.349Z,4.00
2018-06-18T08:57:07.928Z,4.87
2018-06-18T08:59:41.301Z,4.30
2018-06-18T09:02:09.396Z,4.53
2018-06-18T09:04:43.015Z,5.37
2018-06-18T09:07:11.022Z,5.37
2018-06-18T09:09:39.078Z,5.03
2018-06-18T09:12:07.106Z,5.70
2018-06-18T09:14:35.837Z,5.27
2018-06-18T09:17:03.865Z,6.07
2018-06-18T09:19:31.889Z,5.07
2018-06-18T09:21:59.907Z,5.57
2018-06-18T09:24:33.012Z,7.27
2018-06-18T09:27:06.494Z,7.20
2018-06-18T09:29:35.190Z,6.30
2018-06-18T09:32:03.277Z,7.37
2018-06-18T09:34:32.217Z,6.90
2018-06-18T09:37:00.215Z,6.60
2018-06-18T09:39:28.230Z,6.83
2018-06-18T09:41:56.302Z,7.80
2018-06-18T09:44:24.332Z,7.80
2018-06-18T09:46:52.358Z,6.47
2018-06-18T09:49:25.814Z,6.63
2018-06-18T09:51:59.209Z,7.23
2018-06-18T09:54:32.913Z,7.63
2018-06-18T09:57:06.397Z,7.63
2018-06-18T09:59:39.849Z,7.30
2018-06-18T10:02:15.031Z,7.13
2018-06-18T10:04:43.031Z,7.23
2018-06-18T10:07:11.052Z,7.90
2018-06-18T10:09:39.073Z,7.70
2018-06-18T10:12:07.084Z,7.50
2018-06-18T10:14:35.341Z,7.00
2018-06-18T10:17:03.348Z,8.50
2018-06-18T10:19:31.313Z,6.90
2018-06-18T10:21:59.345Z,7.40
2018-06-18T10:24:27.403Z,8.63
2018-06-18T10:26:55.328Z,7.40
2018-06-18T10:29:23.329Z,6.80
2018-06-18T10:31:51.348Z,6.93
2018-06-18T10:34:25.244Z,5.80
2018-06-18T10:36:58.572Z,6.37
2018-06-18T10:39:32.131Z,7.10
2018-06-18T10:42:05.692Z,6.50
2018-06-18T10:44:33.794Z,6.57
2018-06-18T10:47:01.948Z,6.10
2018-06-18T10:49:29.951Z,6.27
2018-06-18T10:51:57.947Z,5.13
2018-06-18T10:54:25.965Z,6.30
2018-06-18T10:56:54.046Z,6.63
2018-06-18T10:59:22.009Z,5.70
2018-06-18T11:01:50.015Z,5.80
2018-06-18T11:04:23.388Z,6.30
2018-06-18T11:06:51.396Z,6.27
2018-06-18T11:09:22.172Z,5.77
2018-06-18T11:11:51.412Z,5.80
2018-06-18T11:14:19.576Z,5.90
2018-06-18T11:16:53.335Z,5.50
2018-06-18T11:19:26.623Z,5.20
2018-06-18T11:21:59.952Z,5.53
2018-06-18T11:24:33.336Z,5.50
2018-06-18T11:27:01.368Z,6.27
2018-06-18T11:29:29.417Z,5.80
2018-06-18T11:31:57.477Z,5.78
2018-06-18T11:34:25.485Z,4.90
2018-06-18T11:36:53.562Z,4.87
2018-06-18T11:39:21.643Z,4.83
2018-06-18T11:41:49.638Z,5.10
2018-06-18T11:44:17.570Z,5.17
2018-06-18T11:46:45.595Z,4.57
2018-06-18T11:49:13.601Z,5.00
2018-06-18T11:51:41.719Z,5.53
2018-06-18T11:54:09.730Z,4.30
2018-06-18T11:56:37.833Z,5.83
2018-06-18T11:59:11.181Z,5.43
2018-06-18T12:01:44.739Z,4.60
2018-06-18T12:04:18.190Z,4.80
2018-06-18T12:06:51.586Z,4.60
2018-06-18T12:09:27.080Z,5.53
2018-06-18T12:11:55.383Z,4.70
2018-06-18T12:14:23.401Z,4.70
2018-06-18T12:16:51.489Z,5.27
2018-06-18T12:19:19.517Z,4.50
2018-06-18T12:21:47.529Z,4.40
2018-06-18T12:24:15.668Z,4.77
2018-06-18T12:26:43.781Z,4.33
2018-06-18T12:29:11.810Z,4.60
2018-06-18T12:31:39.848Z,5.03
2018-06-18T12:34:07.895Z,4.00
2018-06-18T12:36:35.885Z,4.17
2018-06-18T12:39:05.600Z,3.70
2018-06-18T12:41:33.640Z,4.13
2018-06-18T12:44:01.718Z,4.27
2018-06-18T12:46:35.156Z,4.40
2018-06-18T12:49:09.312Z,4.80
2018-06-18T12:51:42.639Z,3.70
2018-06-18T12:54:15.949Z,4.30
2018-06-18T12:56:49.313Z,3.97
2018-06-18T12:59:17.341Z,4.07
2018-06-18T13:01:49.465Z,4.60
2018-06-18T13:04:17.547Z,4.50
2018-06-18T13:06:45.544Z,3.90
2018-06-18T13:09:14.491Z,3.93
2018-06-18T13:11:42.537Z,4.83
2018-06-18T13:14:10.497Z,6.07
2018-06-18T13:16:38.501Z,4.07
2018-06-18T13:19:06.538Z,4.30
2018-06-18T13:21:34.532Z,4.23
2018-06-18T13:24:02.559Z,4.83
2018-06-18T13:26:30.596Z,5.30
2018-06-18T13:28:58.593Z,5.33
2018-06-18T13:31:26.600Z,5.03
2018-06-18T13:33:54.617Z,5.00
2018-06-18T13:36:22.635Z,5.93
2018-06-18T13:38:56.077Z,5.17
2018-06-18T13:41:29.635Z,5.00
2018-06-18T13:44:03.096Z,5.47
2018-06-18T13:46:36.469Z,5.17
2018-06-18T13:49:04.533Z,5.10
2018-06-18T13:51:32.546Z,5.20
2018-06-18T13:54:00.581Z,6.03
2018-06-18T13:56:28.608Z,5.20
2018-06-18T13:58:56.676Z,5.00
2018-06-18T14:01:24.677Z,5.30
2018-06-18T14:03:52.685Z,5.40
2018-06-18T14:06:20.713Z,6.30
2018-06-18T14:08:48.727Z,6.20
2018-06-18T14:11:16.741Z,5.93
2018-06-18T14:13:44.983Z,6.00
2018-06-18T14:16:13.993Z,6.63
2018-06-18T14:18:42.022Z,5.20
2018-06-18T14:21:10.121Z,5.63
2018-06-18T14:23:38.701Z,6.60
2018-06-18T14:26:06.856Z,6.17
2018-06-18T14:28:34.897Z,5.80
2018-06-18T14:31:08.281Z,6.07
2018-06-18T14:33:41.820Z,6.50
2018-06-18T14:36:15.404Z,6.00
2018-06-18T14:38:48.916Z,5.73
2018-06-18T14:41:16.935Z,5.30
2018-06-18T14:43:45.008Z,5.50
2018-06-18T14:46:13.109Z,5.23
2018-06-18T14:48:41.324Z,5.50
2018-06-18T14:51:09.364Z,5.57
2018-06-18T14:53:37.420Z,5.13
2018-06-18T14:56:16.733Z,5.93
2018-06-18T14:58:51.698Z,5.57
2018-06-18T15:01:19.695Z,5.13
2018-06-18T15:03:47.776Z,5.63
2018-06-18T15:06:15.827Z,5.27
2018-06-18T15:08:43.843Z,5.27
2018-06-18T15:11:11.844Z,5.50
2018-06-18T15:13:39.975Z,5.30
2018-06-18T15:16:13.295Z,5.53
2018-06-18T15:18:41.304Z,5.63
2018-06-18T15:21:09.411Z,5.50
2018-06-18T15:23:37.378Z,6.00
2018-06-18T15:26:05.758Z,6.17
2018-06-18T15:28:33.747Z,5.37
2018-06-18T15:31:01.739Z,5.67
2018-06-18T15:33:29.758Z,5.97
2018-06-18T15:35:57.816Z,5.70
2018-06-18T15:38:25.935Z,5.90
2018-06-18T15:40:54.007Z,5.33
2018-06-18T15:43:22.020Z,5.13
2018-06-18T15:45:50.125Z,4.77
2018-06-18T15:48:18.164Z,4.23
2018-06-18T15:50:46.372Z,5.73
2018-06-18T15:53:14.386Z,6.30
2018-06-18T15:55:42.398Z,5.30
2018-06-18T15:58:10.496Z,5.87
2018-06-18T16:00:38.510Z,5.17
2018-06-18T16:03:06.551Z,6.10
2018-06-18T16:05:34.596Z,5.73
2018-06-18T16:08:02.721Z,5.70
2018-06-18T16:10:30.740Z,5.60
2018-06-18T16:12:58.786Z,6.37
2018-06-18T16:15:26.798Z,5.73
2018-06-18T16:17:54.828Z,7.00
2018-06-18T16:20:22.840Z,5.93
2018-06-18T16:22:50.896Z,5.87
2018-06-18T16:25:18.926Z,5.73
2018-06-18T16:27:46.933Z,6.80
2018-06-18T16:30:16.034Z,6.20
2018-06-18T16:32:44.033Z,7.30
2018-06-18T16:35:12.282Z,7.10
2018-06-18T16:37:40.323Z,9.40
2018-06-18T16:40:08.332Z,8.90
2018-06-18T16:42:36.362Z,10.17
2018-06-18T16:45:04.449Z,10.57
2018-06-18T16:47:32.481Z,10.20
2018-06-18T16:50:00.501Z,9.40
2018-06-18T16:52:28.556Z,9.27
2018-06-18T16:54:56.652Z,9.60
2018-06-18T16:57:25.753Z,9.63
2018-06-18T16:59:53.749Z,7.97
2018-06-18T17:02:21.773Z,7.13
2018-06-18T17:04:49.876Z,5.90
2018-06-18T17:07:17.908Z,5.70
2018-06-18T17:09:45.899Z,5.93
2018-06-18T17:12:13.921Z,5.00
2018-06-18T17:14:42.020Z,4.33
2018-06-18T17:17:10.034Z,3.93
2018-06-18T17:19:38.115Z,3.87
2018-06-18T17:22:06.245Z,3.90
2018-06-18T17:24:34.284Z,3.37
2018-06-18T17:27:02.311Z,3.47
2018-06-18T17:29:30.318Z,3.73
2018-06-18T17:31:58.316Z,3.80
2018-06-18T17:34:26.439Z,3.37
2018-06-18T17:36:54.452Z,3.60
2018-06-18T17:39:22.508Z,4.07
2018-06-18T17:41:50.677Z,3.83
2018-06-18T17:44:18.714Z,3.83
2018-06-18T17:46:46.766Z,3.43
2018-06-18T17:49:14.975Z,3.67
2018-06-18T17:51:42.940Z,3.80
2018-06-18T17:54:10.956Z,3.80
2018-06-18T17:56:38.969Z,3.80
2018-06-18T17:59:07.030Z,4.23
2018-06-18T18:01:35.013Z,3.40
2018-06-18T18:04:03.017Z,3.90
2018-06-18T18:06:31.042Z,3.83
2018-06-18T18:08:59.056Z,3.50
2018-06-18T18:11:27.110Z,4.73
2018-06-18T18:13:55.133Z,4.90
2018-06-18T18:16:23.136Z,4.73
2018-06-18T18:18:51.145Z,5.17
2018-06-18T18:21:19.128Z,5.90
2018-06-18T18:23:47.127Z,7.33
2018-06-18T18:26:15.132Z,7.43
2018-06-18T18:28:43.255Z,7.17
2018-06-18T18:31:11.197Z,7.37
2018-06-18T18:33:39.216Z,7.63
2018-06-18T18:36:07.276Z,8.30
2018-06-18T18:38:35.292Z,7.70
2018-06-18T18:41:03.330Z,8.40
2018-06-18T18:43:31.300Z,8.93
2018-06-18T18:45:59.286Z,9.23
2018-06-18T18:48:27.326Z,9.27
2018-06-18T18:50:55.338Z,8.17
2018-06-18T18:53:23.485Z,8.43
2018-06-18T18:56:06.104Z,8.20
2018-06-18T18:59:41.097Z,8.00
2018-06-18T19:02:09.149Z,7.73
2018-06-18T19:04:44.656Z,7.77
2018-06-18T19:07:12.848Z,7.63
2018-06-18T19:09:46.106Z,8.27
2018-06-18T19:12:14.063Z,7.07
2018-06-18T19:14:42.078Z,8.90
2018-06-18T19:17:10.080Z,8.23
2018-06-18T19:19:44.952Z,8.60
2018-06-18T19:22:13.348Z,7.03
2018-06-18T19:24:41.547Z,8.03
2018-06-18T19:27:09.537Z,7.50
2018-06-18T19:29:37.561Z,7.47
2018-06-18T19:32:05.932Z,8.67
2018-06-18T19:34:34.269Z,8.43
2018-06-18T19:37:02.290Z,8.03
2018-06-18T19:39:32.738Z,8.10
2018-06-18T19:42:00.771Z,7.77
2018-06-18T19:44:28.798Z,9.10
2018-06-18T19:48:11.188Z,8.50
2018-06-18T19:50:39.411Z,9.27
2018-06-18T19:53:07.657Z,9.07
2018-06-18T19:55:35.634Z,8.80
2018-06-18T19:58:03.679Z,9.07
2018-06-18T20:00:35.795Z,9.37
2018-06-18T20:03:03.776Z,9.83
2018-06-18T20:05:31.776Z,8.30
2018-06-18T20:08:01.973Z,9.60
2018-06-18T20:10:29.976Z,10.40
2018-06-18T20:12:57.996Z,10.40
2018-06-18T20:15:26.445Z,10.47
2018-06-18T20:17:54.481Z,10.20
2018-06-18T20:20:22.617Z,11.00
2018-06-18T20:22:50.717Z,11.10
2018-06-18T20:25:21.685Z,10.10
2018-06-18T20:27:49.661Z,11.00
2018-06-18T20:30:17.664Z,10.67
2018-06-18T20:32:45.685Z,10.70
2018-06-18T20:35:23.186Z,10.97
2018-06-18T20:37:51.282Z,12.13
2018-06-18T20:40:19.252Z,10.90
2018-06-18T20:42:47.257Z,11.50
2018-06-18T20:45:15.281Z,11.50
2018-06-18T20:47:43.312Z,11.33
2018-06-18T20:50:11.430Z,12.33
2018-06-18T20:52:39.441Z,12.70
2018-06-18T20:55:07.445Z,11.90
2018-06-18T20:57:35.480Z,11.43
2018-06-18T21:00:04.959Z,11.93
2018-06-18T21:02:33.025Z,11.70
2018-06-18T21:05:01.172Z,11.90
2018-06-18T21:07:29.353Z,13.53
2018-06-18T21:09:57.357Z,12.67
2018-06-18T21:12:25.416Z,13.40
2018-06-18T21:14:53.437Z,12.90
2018-06-18T21:17:21.496Z,13.27
2018-06-18T21:19:49.726Z,13.37
2018-06-18T21:22:17.741Z,12.43
2018-06-18T21:24:45.790Z,12.33
2018-06-18T21:27:13.797Z,11.60
2018-06-18T21:29:41.900Z,12.27
2018-06-18T21:32:09.903Z,11.40
2018-06-18T21:34:37.904Z,11.97
2018-06-18T21:37:05.900Z,11.80
2018-06-18T21:39:34.984Z,11.47
2018-06-18T21:42:02.989Z,10.90
2018-06-18T21:44:34.793Z,12.07
2018-06-18T21:47:02.841Z,12.57
2018-06-18T21:49:30.852Z,11.83
2018-06-18T21:51:58.948Z,11.70
2018-06-18T21:54:26.937Z,13.00
2018-06-18T21:56:54.925Z,12.40
2018-06-18T21:59:23.018Z,11.90
2018-06-18T22:01:51.033Z,11.60
2018-06-18T22:04:19.032Z,12.33
2018-06-18T22:06:47.080Z,11.40
2018-06-18T22:09:18.171Z,11.10
2018-06-18T22:11:48.666Z,12.03
2018-06-18T22:14:16.705Z,11.10
2018-06-18T22:16:44.764Z,11.90
2018-06-18T22:19:12.714Z,12.00
2018-06-18T22:21:40.817Z,12.40
2018-06-18T22:24:08.805Z,11.00
2018-06-18T22:26:37.156Z,10.50
2018-06-18T22:29:05.465Z,12.10
2018-06-18T22:31:33.510Z,10.50
2018-06-18T22:34:01.507Z,10.60
2018-06-18T22:36:29.560Z,10.40
2018-06-18T22:38:58.623Z,10.67
2018-06-18T22:41:26.656Z,12.03
2018-06-18T22:43:54.653Z,11.17
2018-06-18T22:46:22.756Z,11.00
2018-06-18T22:48:50.759Z,10.93
2018-06-18T22:51:18.789Z,10.50
2018-06-18T22:53:46.817Z,11.03
2018-06-18T22:56:14.829Z,11.67
2018-06-18T22:58:42.812Z,10.73
2018-06-18T23:01:10.899Z,10.53
2018-06-18T23:03:39.108Z,13.10
2018-06-18T23:06:07.124Z,12.10
2018-06-18T23:08:35.148Z,12.77
2018-06-18T23:11:03.177Z,12.13
2018-06-18T23:13:33.368Z,13.77
2018-06-18T23:16:02.621Z,13.00
2018-06-18T23:18:30.629Z,13.87
2018-06-18T23:20:58.636Z,14.47
2018-06-18T23:23:26.804Z,12.37
2018-06-18T23:25:54.845Z,14.40
2018-06-18T23:28:26.758Z,13.83
2018-06-18T23:30:54.761Z,14.30
2018-06-18T23:33:22.770Z,15.80
2018-06-18T23:35:50.773Z,15.20
2018-06-18T23:38:18.800Z,15.17
2018-06-18T23:40:46.824Z,14.37
2018-06-18T23:43:14.831Z,14.17
2018-06-18T23:45:42.852Z,13.93
2018-06-18T23:48:10.845Z,15.10
2018-06-18T23:50:38.849Z,14.23
2018-06-18T23:53:06.883Z,14.30
2018-06-18T23:55:34.876Z,13.40
2018-06-18T23:58:02.889Z,12.63
